Time;durP1;ratioP1;P1;durP2;ratioP2;P2;SDS_P1;SDS_P2;PMS_P1;PMS_P2;Temp;Humidity;BMP_temperature;BMP_pressure;BME280_temperature;BME280_humidity;BME280_pressure;Samples;Min_cycle;Max_cycle;Signal;HPM_P1;HPM_P2
2022/10/11 00:02:23;;;;;;;82.70;45.65;;;9.70;99.90;;;;;;5047638;28;20169;-85
2022/10/11 00:04:49;;;;;;;78.45;38.70;;;9.70;99.90;;;;;;5063885;28;20161;-85
2022/10/11 00:07:16;;;;;;;84.07;38.23;;;9.60;99.90;;;;;;5065046;28;20193;-85
2022/10/11 00:09:42;;;;;;;77.38;36.75;;;9.60;99.90;;;;;;5063751;28;20590;-85
2022/10/11 00:12:09;;;;;;;80.20;39.05;;;9.60;99.90;;;;;;5046896;28;20681;-85
2022/10/11 00:14:34;;;;;;;80.25;37.05;;;9.60;99.90;;;;;;5046585;28;20537;-85
2022/10/11 00:17:00;;;;;;;79.33;36.33;;;9.50;99.90;;;;;;5064331;28;20244;-85
2022/10/11 00:19:26;;;;;;;80.67;38.20;;;9.40;99.90;;;;;;5062989;28;20596;-85
2022/10/11 00:21:52;;;;;;;80.53;33.73;;;9.40;99.90;;;;;;5065099;28;20164;-85
2022/10/11 00:24:18;;;;;;;80.18;35.47;;;9.40;99.90;;;;;;5063120;28;20403;-85
2022/10/11 00:26:43;;;;;;;76.20;30.10;;;9.40;99.90;;;;;;5062545;28;20257;-85
2022/10/11 00:29:10;;;;;;;77.00;26.20;;;9.30;99.90;;;;;;5062751;28;20430;-85
2022/10/11 00:31:36;;;;;;;77.38;27.52;;;9.30;99.90;;;;;;5062752;28;20235;-84
2022/10/11 00:34:01;;;;;;;74.20;31.13;;;9.20;99.90;;;;;;5065015;28;20165;-85
2022/10/11 00:36:27;;;;;;;79.63;39.30;;;9.20;99.90;;;;;;5064165;28;20168;-85
2022/10/11 00:38:53;;;;;;;74.60;30.53;;;9.20;99.90;;;;;;5063989;28;20184;-85
2022/10/11 00:41:18;;;;;;;71.73;22.20;;;9.10;99.90;;;;;;5064707;28;20644;-85
2022/10/11 00:43:44;;;;;;;76.30;22.17;;;9.00;99.90;;;;;;5062382;28;20199;-85
2022/10/11 00:46:26;;;;;;;80.07;28.13;;;9.00;99.90;;;;;;5064347;28;20175;-85
2022/10/11 00:49:12;;;;;;;80.40;25.50;;;9.00;99.90;;;;;;5046481;28;20267;-85
2022/10/11 00:51:49;;;;;;;74.47;16.48;;;8.90;99.90;;;;;;5064966;28;20628;-85
2022/10/11 00:54:18;;;;;;;71.05;20.58;;;8.90;99.90;;;;;;5064266;28;20208;-85
2022/10/11 00:56:48;;;;;;;76.97;26.75;;;8.80;99.90;;;;;;5063881;28;20583;-85
2022/10/11 00:59:20;;;;;;;75.78;26.90;;;8.80;99.90;;;;;;5046308;28;20192;-85
2022/10/11 01:01:45;;;;;;;79.35;31.17;;;8.80;99.90;;;;;;5062058;28;20153;-85
2022/10/11 01:04:11;;;;;;;75.33;28.53;;;8.80;99.90;;;;;;5062249;28;20216;-85
2022/10/11 01:06:39;;;;;;;82.10;24.33;;;8.70;99.90;;;;;;5061600;28;20172;-85
2022/10/11 01:09:05;;;;;;;73.63;25.55;;;8.70;99.90;;;;;;5061331;28;20196;-85
2022/10/11 01:11:40;;;;;;;71.23;16.90;;;8.70;99.90;;;;;;5062453;28;20204;-85
2022/10/11 01:14:24;;;;;;;76.25;29.42;;;8.70;99.90;;;;;;5062324;28;20386;-85
2022/10/11 01:16:50;;;;;;;73.65;27.98;;;8.60;99.90;;;;;;5061445;28;20144;-85
2022/10/11 01:19:36;;;;;;;74.43;26.30;;;8.60;99.90;;;;;;5062096;28;20195;-85
2022/10/11 01:22:21;;;;;;;79.47;31.98;;;8.60;99.90;;;;;;5062014;28;20156;-85
2022/10/11 01:24:55;;;;;;;79.45;36.40;;;8.50;99.90;;;;;;5044808;28;20169;-85
2022/10/11 01:27:38;;;;;;;81.72;26.35;;;8.60;99.90;;;;;;5044131;28;20628;-85
2022/10/11 01:30:33;;;;;;;73.60;21.48;;;8.50;99.90;;;;;;5062265;28;20157;-85
2022/10/11 01:33:29;;;;;;;73.50;22.70;;;8.50;99.90;;;;;;5043686;28;20584;-85
2022/10/11 01:36:04;;;;;;;77.68;21.35;;;8.50;99.90;;;;;;5043892;28;20164;-85
2022/10/11 01:38:40;;;;;;;70.43;17.48;;;8.40;99.90;;;;;;5045559;28;20191;-85
2022/10/11 01:41:24;;;;;;;71.25;22.42;;;8.40;99.90;;;;;;5045563;28;20164;-85
2022/10/11 01:43:56;;;;;;;70.38;19.88;;;8.40;99.90;;;;;;5063292;28;20176;-85
2022/10/11 01:46:23;;;;;;;73.60;15.63;;;8.30;99.90;;;;;;5064385;28;20153;-85
2022/10/11 01:48:54;;;;;;;68.40;12.65;;;8.30;99.90;;;;;;5061681;28;20214;-85
2022/10/11 01:51:54;;;;;;;69.43;13.80;;;8.20;99.90;;;;;;5043982;28;20275;-85
2022/10/11 01:54:53;;;;;;;77.85;10.82;;;8.20;99.90;;;;;;5044159;28;20234;-85
2022/10/11 01:57:43;;;;;;;68.35;10.10;;;8.20;99.90;;;;;;5061643;28;20196;-85
2022/10/11 02:00:21;;;;;;;71.05;8.07;;;8.30;99.90;;;;;;5061943;28;20153;-85
2022/10/11 02:03:12;;;;;;;70.78;8.77;;;8.20;99.90;;;;;;5063617;28;20659;-85
2022/10/11 02:05:52;;;;;;;77.40;10.60;;;8.20;99.90;;;;;;5063194;28;20148;-85
2022/10/11 02:08:43;;;;;;;66.53;10.23;;;8.20;99.90;;;;;;5063804;28;20291;-85
2022/10/11 02:11:17;;;;;;;68.40;9.30;;;8.20;99.90;;;;;;5063992;28;20191;-85
2022/10/11 02:13:50;;;;;;;67.88;7.70;;;8.20;99.90;;;;;;5045530;28;20297;-85
2022/10/11 02:16:20;;;;;;;75.53;8.95;;;8.10;99.90;;;;;;5063320;28;20271;-85
2022/10/11 02:18:50;;;;;;;68.47;9.10;;;8.10;99.90;;;;;;5062664;28;20685;-85
2022/10/11 02:21:19;;;;;;;68.13;8.77;;;8.00;99.90;;;;;;5043918;28;20153;-85
2022/10/11 02:23:50;;;;;;;68.55;9.30;;;8.00;99.90;;;;;;5061714;28;20226;-85
2022/10/11 02:26:18;;;;;;;105.40;10.15;;;8.00;99.90;;;;;;5061131;28;20153;-85
2022/10/11 02:28:46;;;;;;;69.20;9.48;;;8.00;99.90;;;;;;5046968;28;20212;-85
2022/10/11 02:31:13;;;;;;;73.63;9.05;;;7.90;99.90;;;;;;5067441;28;20194;-85
2022/10/11 02:34:29;;;;;;;70.75;11.10;;;7.90;99.90;;;;;;5065248;28;20165;-85
2022/10/11 02:37:16;;;;;;;68.07;8.68;;;7.90;99.90;;;;;;5035886;28;20176;-85
2022/10/11 02:39:45;;;;;;;68.15;10.52;;;7.90;99.90;;;;;;5067315;28;20180;-85
2022/10/11 02:42:18;;;;;;;68.65;9.98;;;7.80;99.90;;;;;;5065034;28;20203;-85
2022/10/11 02:44:52;;;;;;;69.10;9.93;;;7.80;99.90;;;;;;5067756;28;20217;-85
2022/10/11 02:47:18;;;;;;;70.80;10.73;;;7.70;99.90;;;;;;5048782;28;20228;-85
2022/10/11 02:49:44;;;;;;;71.07;12.27;;;7.70;99.90;;;;;;5066995;28;20215;-85
2022/10/11 02:52:09;;;;;;;69.80;9.65;;;7.60;99.90;;;;;;5065085;28;20199;-85
2022/10/11 02:54:36;;;;;;;67.30;11.27;;;7.60;99.90;;;;;;5047192;28;20172;-85
2022/10/11 02:57:01;;;;;;;69.40;12.80;;;7.50;99.90;;;;;;5067519;28;20192;-85
2022/10/11 02:59:27;;;;;;;69.87;13.50;;;7.50;99.90;;;;;;5066696;28;20177;-85
2022/10/11 03:01:53;;;;;;;68.60;13.37;;;7.50;99.90;;;;;;5065492;28;20187;-85
2022/10/11 03:04:19;;;;;;;70.20;14.48;;;7.50;99.90;;;;;;5048936;28;20176;-85
2022/10/11 03:06:44;;;;;;;67.50;11.80;;;7.40;99.90;;;;;;5064560;28;20178;-85
2022/10/11 03:09:10;;;;;;;68.63;12.97;;;7.40;99.90;;;;;;5066488;28;20256;-85
2022/10/11 03:11:36;;;;;;;75.17;15.53;;;7.40;99.90;;;;;;5049424;28;20563;-85
2022/10/11 03:14:01;;;;;;;67.03;13.90;;;7.30;99.90;;;;;;5048760;28;20168;-85
2022/10/11 03:16:27;;;;;;;69.60;13.87;;;7.30;99.90;;;;;;5066738;28;20160;-85
2022/10/11 03:18:53;;;;;;;67.47;14.17;;;7.30;99.90;;;;;;5066571;28;20235;-85
2022/10/11 03:21:18;;;;;;;69.57;15.93;;;7.30;99.90;;;;;;5064580;28;20169;-85
2022/10/11 03:23:44;;;;;;;69.47;13.80;;;7.30;99.90;;;;;;5067218;28;20224;-85
2022/10/11 03:26:10;;;;;;;75.93;14.60;;;7.30;99.90;;;;;;5049276;28;20191;-85
2022/10/11 03:28:35;;;;;;;76.77;14.87;;;7.30;99.90;;;;;;5049687;28;20281;-85
2022/10/11 03:31:01;;;;;;;75.23;14.77;;;7.30;99.90;;;;;;5048737;28;20188;-85
2022/10/11 03:33:27;;;;;;;73.07;17.43;;;7.20;99.90;;;;;;5048447;28;20192;-85
2022/10/11 03:35:52;;;;;;;70.50;15.87;;;7.20;99.90;;;;;;5048587;28;20165;-85
2022/10/11 03:38:20;;;;;;;73.07;14.60;;;7.30;99.90;;;;;;5066959;28;20195;-85
2022/10/11 03:40:46;;;;;;;78.30;14.63;;;7.20;99.90;;;;;;5047177;28;20517;-85
2022/10/11 03:43:12;;;;;;;75.30;17.02;;;7.20;99.90;;;;;;5064220;28;20160;-85
2022/10/11 03:45:41;;;;;;;81.10;16.90;;;7.20;99.90;;;;;;5063706;28;20248;-85
2022/10/11 03:48:07;;;;;;;82.30;22.95;;;7.10;99.90;;;;;;5048464;28;20189;-85
2022/10/11 03:50:33;;;;;;;77.05;16.73;;;7.10;99.90;;;;;;5066576;28;20247;-85
2022/10/11 03:52:58;;;;;;;71.60;17.50;;;7.10;99.90;;;;;;5047976;28;20219;-85
2022/10/11 03:55:24;;;;;;;73.13;16.00;;;7.10;99.90;;;;;;5048661;28;20411;-85
2022/10/11 03:57:49;;;;;;;76.50;19.00;;;7.10;99.90;;;;;;5048683;28;20161;-85
2022/10/11 04:00:15;;;;;;;71.90;17.00;;;7.10;99.90;;;;;;5065359;28;20254;-85
2022/10/11 04:02:41;;;;;;;73.60;17.07;;;7.10;99.90;;;;;;5066286;28;20164;-85
2022/10/11 04:05:07;;;;;;;77.40;17.80;;;7.00;99.90;;;;;;5065484;28;20747;-85
2022/10/11 04:07:33;;;;;;;75.65;17.63;;;7.00;99.90;;;;;;5047954;28;20183;-85
2022/10/11 04:10:01;;;;;;;77.57;17.00;;;6.90;99.90;;;;;;5065683;28;20234;-85
2022/10/11 04:12:27;;;;;;;77.05;16.83;;;6.90;99.90;;;;;;5065423;28;20195;-85
2022/10/11 04:14:53;;;;;;;73.77;14.30;;;6.90;99.90;;;;;;5064386;28;20156;-85
2022/10/11 04:17:19;;;;;;;79.73;15.50;;;6.90;99.90;;;;;;5046091;28;20407;-85
2022/10/11 04:19:45;;;;;;;73.07;19.23;;;6.90;99.90;;;;;;5065740;28;20234;-85
2022/10/11 04:22:10;;;;;;;77.45;19.63;;;6.90;99.90;;;;;;5065656;28;20191;-85
2022/10/11 04:24:36;;;;;;;73.97;19.93;;;6.80;99.90;;;;;;5065048;28;20170;-85
2022/10/11 04:27:02;;;;;;;73.37;17.80;;;6.80;99.90;;;;;;5065170;28;20169;-85
2022/10/11 04:29:27;;;;;;;73.60;15.70;;;6.70;99.90;;;;;;5064861;28;20212;-85
2022/10/11 04:31:53;;;;;;;80.43;17.67;;;6.70;99.90;;;;;;5064984;28;20196;-85
2022/10/11 04:34:19;;;;;;;76.93;15.77;;;6.70;99.90;;;;;;5065858;28;20168;-85
2022/10/11 04:36:44;;;;;;;72.97;13.80;;;6.70;99.90;;;;;;5066242;28;20164;-85
2022/10/11 04:39:10;;;;;;;73.57;18.67;;;6.60;99.90;;;;;;5045198;28;20222;-86
2022/10/11 04:41:36;;;;;;;71.47;17.70;;;6.60;99.90;;;;;;5047739;28;20173;-85
2022/10/11 04:44:02;;;;;;;71.37;16.30;;;6.60;99.90;;;;;;5065192;28;20188;-85
2022/10/11 04:46:28;;;;;;;75.57;19.25;;;6.60;99.90;;;;;;5065439;28;20509;-85
2022/10/11 04:48:54;;;;;;;70.97;16.58;;;6.50;99.90;;;;;;5065205;28;20195;-85
2022/10/11 04:51:20;;;;;;;80.57;15.98;;;6.50;99.90;;;;;;5047283;28;20251;-85
2022/10/11 04:53:47;;;;;;;77.32;17.98;;;6.50;99.90;;;;;;5065444;28;20192;-85
2022/10/11 04:56:15;;;;;;;75.40;17.70;;;6.40;99.90;;;;;;5065287;28;20187;-85
2022/10/11 04:58:41;;;;;;;77.20;22.70;;;6.40;99.90;;;;;;5047751;28;20184;-85
2022/10/11 05:01:08;;;;;;;73.10;18.48;;;6.50;99.90;;;;;;5065498;28;20175;-85
2022/10/11 05:03:34;;;;;;;73.60;18.80;;;6.40;99.90;;;;;;5065085;28;20176;-85
2022/10/11 05:06:00;;;;;;;76.18;17.23;;;6.40;99.90;;;;;;5047687;28;20178;-85
2022/10/11 05:08:26;;;;;;;74.82;22.35;;;6.40;99.90;;;;;;5108517;22;20252;-84
2022/10/11 05:11:06;;;;;;;69.93;15.20;;;6.40;99.90;;;;;;5038836;28;20193;-84
2022/10/11 05:13:34;;;;;;;80.47;17.42;;;6.40;99.90;;;;;;5039147;28;20206;-84
2022/10/11 05:16:01;;;;;;;74.43;18.75;;;6.40;99.90;;;;;;5053572;28;20189;-84
2022/10/11 05:18:27;;;;;;;71.82;22.05;;;6.40;99.90;;;;;;5038352;28;20268;-84
2022/10/11 05:21:13;;;;;;;75.95;26.50;;;6.40;99.90;;;;;;5038641;28;20161;-84
2022/10/11 05:23:38;;;;;;;79.18;22.10;;;6.40;99.90;;;;;;5037462;28;20179;-84
2022/10/11 05:26:04;;;;;;;75.33;27.00;;;6.30;99.90;;;;;;5038030;28;20165;-84
2022/10/11 05:28:30;;;;;;;74.10;28.27;;;6.30;99.90;;;;;;5038041;28;20180;-84
2022/10/11 05:30:56;;;;;;;78.57;31.48;;;6.30;99.90;;;;;;5036261;28;20287;-84
2022/10/11 05:33:22;;;;;;;80.27;25.40;;;6.30;99.90;;;;;;5038281;28;20200;-84
2022/10/11 05:35:48;;;;;;;77.10;32.60;;;6.40;99.90;;;;;;5038293;28;20169;-84
2022/10/11 05:38:14;;;;;;;77.60;35.27;;;6.30;99.90;;;;;;5038397;28;20192;-84
2022/10/11 05:40:43;;;;;;;78.43;27.48;;;6.30;99.90;;;;;;5038383;28;20244;-84
2022/10/11 05:43:09;;;;;;;77.07;26.27;;;6.30;99.90;;;;;;5038342;28;20249;-84
2022/10/11 05:45:37;;;;;;;78.25;30.58;;;6.30;99.90;;;;;;5038512;28;20169;-84
2022/10/11 05:48:03;;;;;;;78.78;25.15;;;6.30;99.90;;;;;;5037951;28;20181;-84
2022/10/11 05:50:28;;;;;;;77.87;21.47;;;6.20;99.90;;;;;;5038342;28;20208;-84
2022/10/11 05:52:54;;;;;;;72.53;23.33;;;6.20;99.90;;;;;;5036479;28;20173;-84
2022/10/11 05:55:20;;;;;;;79.00;38.10;;;6.10;99.90;;;;;;5038281;28;20403;-84
2022/10/11 05:57:46;;;;;;;78.40;32.77;;;6.10;99.90;;;;;;5038230;28;20610;-84
2022/10/11 06:00:12;;;;;;;80.13;32.17;;;6.20;99.90;;;;;;5037016;28;20165;-84
2022/10/11 06:02:38;;;;;;;77.93;37.83;;;6.20;99.90;;;;;;5036249;28;20165;-84
2022/10/11 06:05:04;;;;;;;77.75;35.83;;;6.30;99.90;;;;;;5038225;28;20422;-84
2022/10/11 06:07:30;;;;;;;87.95;49.83;;;6.30;99.90;;;;;;5038372;28;20595;-84
2022/10/11 06:09:56;;;;;;;87.95;50.67;;;6.30;99.90;;;;;;5038132;28;20687;-84
2022/10/11 06:12:21;;;;;;;84.57;55.73;;;6.40;99.90;;;;;;5038456;28;20193;-84
2022/10/11 06:14:47;;;;;;;79.27;41.30;;;6.50;99.90;;;;;;5038041;28;20529;-84
2022/10/11 06:17:13;;;;;;;80.27;34.20;;;6.70;99.90;;;;;;5038211;28;20253;-84
2022/10/11 06:19:39;;;;;;;81.00;35.13;;;6.80;99.90;;;;;;5038164;28;20177;-83
2022/10/11 06:22:04;;;;;;;76.73;33.53;;;7.00;99.90;;;;;;5038203;28;20572;-84
2022/10/11 06:24:33;;;;;;;84.63;39.10;;;7.20;99.90;;;;;;5038489;28;20234;-84
2022/10/11 06:26:59;;;;;;;79.05;29.13;;;7.40;99.90;;;;;;5036685;28;20169;-84
2022/10/11 06:29:24;;;;;;;77.72;34.67;;;7.60;99.90;;;;;;5036934;28;20279;-84
2022/10/11 06:31:50;;;;;;;74.60;30.63;;;7.80;99.90;;;;;;5038322;28;20227;-84
2022/10/11 06:34:16;;;;;;;79.07;29.90;;;7.90;99.90;;;;;;5038383;28;20540;-84
2022/10/11 06:36:41;;;;;;;77.47;24.73;;;7.90;99.90;;;;;;5037352;28;20165;-84
2022/10/11 06:39:07;;;;;;;74.17;20.30;;;8.00;99.90;;;;;;5036576;28;20196;-84
2022/10/11 06:41:33;;;;;;;73.70;17.97;;;8.10;99.90;;;;;;5037998;28;20209;-84
2022/10/11 06:43:58;;;;;;;77.23;15.80;;;8.10;99.90;;;;;;5037051;28;20200;-84
2022/10/11 06:46:26;;;;;;;71.70;15.63;;;8.20;99.90;;;;;;5038292;28;20608;-84
2022/10/11 06:48:53;;;;;;;76.28;15.07;;;8.30;99.90;;;;;;5036695;28;20185;-84
2022/10/11 06:51:20;;;;;;;75.22;16.13;;;8.20;99.90;;;;;;5037824;28;20197;-84
2022/10/11 06:53:57;;;;;;;77.32;16.30;;;8.30;99.90;;;;;;5035306;28;20173;-84
2022/10/11 06:56:25;;;;;;;75.55;14.23;;;8.30;99.90;;;;;;5038233;28;20157;-84
2022/10/11 06:58:52;;;;;;;84.47;17.88;;;8.30;99.90;;;;;;5038211;28;20217;-84
2022/10/11 07:01:20;;;;;;;81.53;18.33;;;8.40;99.90;;;;;;5037242;28;20181;-84
2022/10/11 07:03:47;;;;;;;81.50;15.45;;;8.50;99.90;;;;;;5037440;28;20161;-84
2022/10/11 07:06:15;;;;;;;92.40;18.40;;;8.60;99.90;;;;;;5037745;28;20244;-84
2022/10/11 07:08:41;;;;;;;91.25;18.45;;;8.60;99.90;;;;;;5037069;28;20236;-84
2022/10/11 07:11:10;;;;;;;97.43;19.77;;;8.70;99.90;;;;;;5037870;28;20184;-84
2022/10/11 07:13:37;;;;;;;98.88;20.27;;;8.70;99.90;;;;;;5036614;28;20617;-84
2022/10/11 07:16:05;;;;;;;87.45;23.77;;;8.80;99.90;;;;;;5041660;28;20176;-84
2022/10/11 07:18:31;;;;;;;104.45;22.38;;;8.80;99.90;;;;;;5042197;28;20581;-84
2022/10/11 07:20:57;;;;;;;103.43;21.30;;;8.90;99.90;;;;;;5041516;28;20227;-84
2022/10/11 07:23:23;;;;;;;99.53;21.90;;;8.90;99.90;;;;;;5041704;28;20899;-84
2022/10/11 07:25:53;;;;;;;115.13;23.90;;;9.00;99.90;;;;;;5040776;28;20169;-84
2022/10/11 07:28:22;;;;;;;111.90;22.50;;;9.10;99.90;;;;;;5040732;28;20661;-84
2022/10/11 07:30:47;;;;;;;92.97;23.50;;;9.10;99.90;;;;;;5041427;28;20652;-84
2022/10/11 07:33:13;;;;;;;107.47;25.97;;;9.20;99.90;;;;;;5041417;28;20168;-84
2022/10/11 07:35:39;;;;;;;102.37;22.10;;;9.30;99.90;;;;;;5041487;28;20528;-84
2022/10/11 07:38:05;;;;;;;98.30;25.40;;;9.40;99.90;;;;;;5040010;28;20196;-84
2022/10/11 07:40:35;;;;;;;107.68;23.65;;;9.40;99.90;;;;;;5041301;28;20165;-84
2022/10/11 07:43:00;;;;;;;110.95;20.58;;;9.50;99.90;;;;;;5041411;28;20510;-84
2022/10/11 07:45:27;;;;;;;112.33;25.37;;;9.50;99.90;;;;;;5041791;28;20176;-84
2022/10/11 07:47:57;;;;;;;118.25;27.25;;;9.40;99.90;;;;;;5039214;28;20189;-84
2022/10/11 07:50:23;;;;;;;114.30;28.27;;;9.40;99.90;;;;;;5038633;28;20205;-84
2022/10/11 07:52:49;;;;;;;108.07;27.23;;;9.50;99.90;;;;;;5041331;28;20170;-84
2022/10/11 07:55:15;;;;;;;115.65;27.90;;;9.60;99.90;;;;;;5039984;28;20237;-84
2022/10/11 07:57:41;;;;;;;126.00;32.90;;;9.60;99.90;;;;;;5041973;28;20162;-84
2022/10/11 08:00:07;;;;;;;116.67;28.77;;;9.60;99.90;;;;;;5040562;28;20222;-84
2022/10/11 08:02:33;;;;;;;126.10;30.42;;;9.50;99.90;;;;;;5039796;28;20176;-84
2022/10/11 08:04:59;;;;;;;130.53;34.63;;;9.50;99.90;;;;;;5040726;28;20161;-84
2022/10/11 08:07:24;;;;;;;121.47;36.70;;;9.50;99.90;;;;;;5040074;28;20660;-84
2022/10/11 08:09:51;;;;;;;118.37;32.50;;;9.50;99.90;;;;;;5040282;28;20185;-84
2022/10/11 08:12:17;;;;;;;123.18;31.95;;;9.60;99.90;;;;;;5039943;28;20200;-84
2022/10/11 08:14:43;;;;;;;127.83;35.43;;;9.70;99.90;;;;;;5040820;28;20173;-84
2022/10/11 08:17:08;;;;;;;133.33;35.97;;;9.80;99.90;;;;;;5040965;28;20196;-84
2022/10/11 08:19:34;;;;;;;119.53;32.33;;;9.80;99.90;;;;;;5040335;28;20192;-84
2022/10/11 08:22:00;;;;;;;120.97;35.53;;;9.80;99.90;;;;;;5039504;28;20165;-84
2022/10/11 08:24:26;;;;;;;120.13;34.20;;;9.80;99.90;;;;;;5040539;28;20666;-84
2022/10/11 08:26:52;;;;;;;111.73;29.17;;;9.90;99.90;;;;;;5039807;28;20422;-85
2022/10/11 08:29:17;;;;;;;123.93;35.87;;;10.00;99.90;;;;;;5040790;28;20420;-84
2022/10/11 08:31:43;;;;;;;128.90;32.60;;;10.10;99.90;;;;;;5040228;28;20200;-85
2022/10/11 08:34:13;;;;;;;143.13;39.28;;;10.00;99.90;;;;;;5040406;28;20791;-84
2022/10/11 08:36:38;;;;;;;120.72;33.38;;;10.10;99.90;;;;;;5040472;28;20161;-85
2022/10/11 08:39:05;;;;;;;124.17;35.53;;;10.10;99.90;;;;;;5040441;28;20185;-84
2022/10/11 08:41:46;;;;;;;118.03;34.15;;;10.20;99.90;;;;;;5040681;28;20632;-84
2022/10/11 08:44:41;;;;;;;116.68;32.55;;;10.30;99.90;;;;;;5039970;28;20529;-84
2022/10/11 08:47:27;;;;;;;120.07;32.90;;;10.40;99.90;;;;;;5055750;28;20672;-84
2022/10/11 08:49:54;;;;;;;114.38;36.15;;;10.40;99.90;;;;;;5040082;28;20760;-84
2022/10/11 08:52:43;;;;;;;125.70;35.42;;;10.30;99.90;;;;;;5040486;28;20189;-85
2022/10/11 08:55:27;;;;;;;119.65;33.05;;;10.30;99.90;;;;;;5040391;28;20175;-84
2022/10/11 08:57:55;;;;;;;117.80;33.35;;;10.60;99.90;;;;;;5039504;28;20652;-84
2022/10/11 09:00:22;;;;;;;125.82;32.20;;;10.80;99.90;;;;;;5039858;28;20525;-84
2022/10/11 09:03:20;;;;;;;116.45;33.20;;;10.70;99.90;;;;;;5040214;28;20164;-85
2022/10/11 09:05:49;;;;;;;123.38;31.30;;;10.70;99.90;;;;;;5040251;28;20146;-84
2022/10/11 09:08:51;;;;;;;123.65;31.10;;;10.60;99.90;;;;;;5038583;28;20231;-84
2022/10/11 09:11:50;;;;;;;125.78;29.00;;;10.60;99.90;;;;;;5027102;28;20200;-85
2022/10/11 09:14:42;;;;;;;115.22;31.45;;;10.70;99.90;;;;;;5038589;28;20162;-84
2022/10/11 09:17:30;;;;;;;116.10;27.23;;;10.70;99.90;;;;;;5040100;28;20216;-85
2022/10/11 09:20:25;;;;;;;121.72;28.27;;;11.00;99.90;;;;;;5036911;28;20537;-84
2022/10/11 09:23:14;;;;;;;113.18;26.83;;;10.90;99.90;;;;;;5036337;28;20182;-85
2022/10/11 09:26:07;;;;;;;132.45;30.05;;;10.70;99.90;;;;;;5037356;28;20188;-84
2022/10/11 09:28:55;;;;;;;128.65;30.85;;;10.70;99.90;;;;;;5039969;28;20192;-85
2022/10/11 09:31:22;;;;;;;123.70;31.00;;;10.80;99.90;;;;;;5038069;28;20195;-85
2022/10/11 09:33:50;;;;;;;116.40;29.43;;;10.80;99.90;;;;;;5038537;28;20168;-84
2022/10/11 09:36:27;;;;;;;121.78;30.58;;;11.10;99.90;;;;;;5039578;28;20491;-85
2022/10/11 09:39:32;;;;;;;117.13;28.05;;;11.10;99.90;;;;;;5037034;28;20189;-84
2022/10/11 09:42:00;;;;;;;120.95;29.90;;;11.40;99.90;;;;;;5036502;28;20176;-84
2022/10/11 09:44:35;;;;;;;122.47;33.00;;;11.50;99.90;;;;;;5036403;28;20300;-85
2022/10/11 09:47:02;;;;;;;123.68;40.45;;;11.60;99.90;;;;;;5039129;28;20149;-85
2022/10/11 09:49:37;;;;;;;115.32;42.38;;;11.50;99.90;;;;;;5039921;28;20185;-85
2022/10/11 09:52:05;;;;;;;127.30;51.95;;;11.50;99.90;;;;;;5040036;28;20185;-85
2022/10/11 09:54:44;;;;;;;122.35;53.20;;;11.50;99.90;;;;;;5040187;28;20170;-85
2022/10/11 09:57:28;;;;;;;126.55;50.70;;;11.70;99.90;;;;;;5038249;28;20153;-85
2022/10/11 10:00:07;;;;;;;119.82;52.28;;;11.80;99.90;;;;;;5039453;28;20584;-85
2022/10/11 10:02:48;;;;;;;137.45;62.40;;;11.70;99.90;;;;;;5039562;28;20797;-84
2022/10/11 10:05:20;;;;;;;134.75;61.22;;;11.70;99.90;;;;;;5039582;28;20283;-84
2022/10/11 10:08:05;;;;;;;131.75;50.25;;;11.70;99.90;;;;;;5038079;28;20189;-84
2022/10/11 10:10:42;;;;;;;138.95;48.50;;;12.00;99.90;;;;;;5037572;28;20672;-85
2022/10/11 10:13:42;;;;;;;127.32;48.83;;;11.90;99.90;;;;;;5040222;28;20153;-85
2022/10/11 10:16:23;;;;;;;120.17;38.73;;;12.20;99.90;;;;;;5036888;28;20165;-85
2022/10/11 10:18:59;;;;;;;118.90;41.10;;;12.30;99.90;;;;;;5038272;28;20777;-85
2022/10/11 10:21:47;;;;;;;122.50;42.42;;;12.30;99.90;;;;;;5040112;28;20605;-85
2022/10/11 10:24:31;;;;;;;117.73;26.83;;;12.30;99.90;;;;;;5040162;28;20199;-85
2022/10/11 10:27:15;;;;;;;115.30;34.55;;;12.30;99.90;;;;;;5039547;28;20791;-85
2022/10/11 10:29:41;;;;;;;126.90;30.93;;;12.30;99.90;;;;;;5039430;28;20185;-85
2022/10/11 10:32:13;;;;;;;113.27;27.60;;;12.20;99.90;;;;;;5039177;28;20804;-85
2022/10/11 10:35:17;;;;;;;113.28;24.33;;;12.30;99.90;;;;;;5039548;28;20860;-85
2022/10/11 10:37:51;;;;;;;105.90;23.40;;;12.70;99.90;;;;;;5039620;28;20157;-85
2022/10/11 10:40:26;;;;;;;107.70;24.80;;;13.00;99.90;;;;;;5039075;28;20380;-85
2022/10/11 10:42:52;;;;;;;109.20;23.87;;;13.50;99.90;;;;;;5039348;28;20529;-85
2022/10/11 10:45:20;;;;;;;104.47;23.63;;;13.70;99.90;;;;;;5039543;28;20447;-85
2022/10/11 10:48:06;;;;;;;98.20;21.27;;;13.70;99.90;;;;;;5038014;28;20169;-85
2022/10/11 10:50:44;;;;;;;109.00;19.83;;;13.90;99.90;;;;;;5041727;28;20822;-85
2022/10/11 10:53:23;;;;;;;101.67;21.30;;;14.10;99.90;;;;;;5041842;28;20383;-85
2022/10/11 10:56:28;;;;;;;105.43;20.73;;;14.50;99.90;;;;;;5043221;28;20378;-85
2022/10/11 10:59:24;;;;;;;99.20;20.70;;;14.80;99.90;;;;;;5040141;28;20450;-85
2022/10/11 11:02:09;;;;;;;102.03;18.83;;;15.10;99.90;;;;;;5037966;28;20438;-85
2022/10/11 11:04:36;;;;;;;103.17;18.50;;;15.20;99.00;;;;;;5043832;28;20403;-85
2022/10/11 11:10:37;;;;;;;109.87;20.07;;;14.50;99.90;;;;;;5107958;22;20527;-83
2022/10/11 11:13:35;;;;;;;105.30;20.87;;;14.80;99.90;;;;;;5008792;28;20421;-83
2022/10/11 11:16:15;;;;;;;107.77;21.27;;;15.20;97.30;;;;;;5032418;28;20411;-85
2022/10/11 11:18:56;;;;;;;100.37;19.40;;;15.30;84.60;;;;;;5035877;28;20413;-85
2022/10/11 11:21:25;;;;;;;97.80;17.57;;;15.60;87.10;;;;;;5054521;28;20378;-85
2022/10/11 11:23:57;;;;;;;96.73;17.53;;;15.80;73.70;;;;;;5052572;28;20443;-85
2022/10/11 11:26:41;;;;;;;104.33;16.33;;;15.60;65.30;;;;;;5052588;28;20377;-84
2022/10/11 11:29:36;;;;;;;97.23;15.10;;;15.40;60.70;;;;;;5050344;28;20417;-83
2022/10/11 11:32:23;;;;;;;92.17;13.80;;;15.30;62.70;;;;;;5029808;28;20499;-84
2022/10/11 11:34:57;;;;;;;91.03;14.90;;;15.30;65.40;;;;;;5048321;28;20396;-83
2022/10/11 11:37:25;;;;;;;88.67;13.63;;;15.30;59.80;;;;;;5048933;28;20383;-83
2022/10/11 11:40:00;;;;;;;90.43;14.70;;;15.30;62.70;;;;;;5049490;28;20494;-84
2022/10/11 11:42:41;;;;;;;88.70;15.10;;;15.50;57.50;;;;;;5050514;28;20393;-83
2022/10/11 11:45:32;;;;;;;93.13;14.67;;;15.60;52.10;;;;;;5030670;28;20840;-85
2022/10/11 11:48:02;;;;;;;86.70;14.03;;;15.80;47.60;;;;;;5047967;28;20850;-83
2022/10/11 11:50:35;;;;;;;84.67;13.10;;;16.00;47.00;;;;;;5048893;28;20440;-83
2022/10/11 11:53:17;;;;;;;89.53;13.97;;;16.20;39.00;;;;;;5050088;28;20918;-84
2022/10/11 11:55:59;;;;;;;91.67;12.73;;;16.20;31.40;;;;;;5030675;28;20428;-84
2022/10/11 11:58:55;;;;;;;88.17;12.73;;;16.20;30.90;;;;;;5048131;28;20420;-84
2022/10/11 12:01:36;;;;;;;95.73;12.23;;;16.20;28.00;;;;;;5032560;28;20411;-84
2022/10/11 12:04:07;;;;;;;84.67;10.60;;;16.20;28.00;;;;;;5051217;28;20389;-85
2022/10/11 12:06:35;;;;;;;80.70;9.87;;;16.00;24.40;;;;;;5050497;28;20390;-85
2022/10/11 12:09:20;;;;;;;91.40;10.10;;;15.80;25.50;;;;;;5049020;28;20474;-84
2022/10/11 12:11:56;;;;;;;90.33;11.23;;;15.80;20.70;;;;;;5049573;28;20772;-84
2022/10/11 12:14:30;;;;;;;82.57;10.40;;;15.70;23.20;;;;;;5033199;28;20414;-85
2022/10/11 12:17:20;;;;;;;75.17;7.20;;;15.70;21.10;;;;;;5053129;28;20482;-85
2022/10/11 12:20:08;;;;;;;79.73;8.37;;;15.50;8.90;;;;;;5052810;28;20429;-85
2022/10/11 12:22:34;;;;;;;76.10;8.30;;;15.40;14.50;;;;;;5053202;28;20758;-84
2022/10/11 12:25:07;;;;;;;79.00;9.27;;;15.40;11.80;;;;;;5035097;28;20410;-85
2022/10/11 12:27:39;;;;;;;84.90;10.93;;;15.60;16.20;;;;;;5034544;28;20175;-83
2022/10/11 12:30:43;;;;;;;86.93;11.43;;;15.70;20.10;;;;;;5048181;28;20415;-83
2022/10/11 12:33:22;;;;;;;85.37;9.13;;;15.90;15.90;;;;;;5048669;28;20410;-84
2022/10/11 12:35:54;;;;;;;79.67;9.50;;;16.00;18.10;;;;;;5048976;28;20364;-84
2022/10/11 12:38:52;;;;;;;80.67;7.40;;;16.10;10.60;;;;;;5031172;28;20461;-84
2022/10/11 12:41:17;;;;;;;78.47;8.00;;;16.00;1.00;;;;;;5008720;28;20412;-84
2022/10/11 12:44:06;;;;;;;74.17;6.10;;;15.90;1.00;;;;;;5031499;28;20403;-84
2022/10/11 12:46:39;;;;;;;83.93;8.33;;;16.00;1.00;;;;;;5049408;28;20165;-83
2022/10/11 12:49:24;;;;;;;75.60;7.50;;;16.10;1.00;;;;;;5049104;28;20430;-84
2022/10/11 12:52:05;;;;;;;75.73;6.33;;;16.20;1.00;;;;;;5049068;28;20537;-83
2022/10/11 12:55:05;;;;;;;74.30;6.77;;;16.20;1.00;;;;;;5049123;28;20380;-84
2022/10/11 12:58:10;;;;;;;78.17;7.27;;;16.10;1.00;;;;;;5052674;28;20474;-85
2022/10/11 13:00:38;;;;;;;77.27;6.53;;;16.00;1.00;;;;;;5034422;28;20406;-85
2022/10/11 13:03:24;;;;;;;74.83;6.73;;;16.00;1.00;;;;;;5032653;28;20415;-85
2022/10/11 13:05:53;;;;;;;77.67;5.60;;;16.20;1.00;;;;;;5031899;28;20514;-84